Time;durP1;ratioP1;P1;durP2;ratioP2;P2;SDS_P1;SDS_P2;PMS_P1;PMS_P2;Temp;Humidity;BMP_temperature;BMP_pressure;BME280_temperature;BME280_humidity;BME280_pressure;Samples;Min_cycle;Max_cycle;Signal;HPM_P1;HPM_P2
2021/12/31 00:28:30;;;;;;;10.02;3.47;;;14.80;99.90;;;;;;5032891;28;20515;-85
2021/12/31 00:31:02;;;;;;;8.68;3.08;;;14.80;99.90;;;;;;4988076;28;20042;-85
2021/12/31 00:33:30;;;;;;;6.97;2.53;;;14.80;99.90;;;;;;5001154;28;20041;-85
2021/12/31 00:35:56;;;;;;;6.90;2.63;;;14.70;99.90;;;;;;4984595;28;20120;-85
2021/12/31 00:38:22;;;;;;;7.95;2.60;;;14.70;99.90;;;;;;5001581;28;20125;-86
2021/12/31 00:40:53;;;;;;;9.25;2.80;;;14.70;99.90;;;;;;4985421;28;20045;-85
2021/12/31 00:43:19;;;;;;;7.32;2.95;;;14.70;99.90;;;;;;5001029;28;20041;-86
2021/12/31 00:45:47;;;;;;;12.07;2.80;;;14.80;99.90;;;;;;4984933;28;20047;-86
2021/12/31 00:48:13;;;;;;;8.00;2.65;;;14.80;99.90;;;;;;4996201;28;20040;-88
2021/12/31 00:50:45;;;;;;;4.30;2.35;;;14.80;99.90;;;;;;5001531;28;20382;-88
2021/12/31 00:53:14;;;;;;;7.07;2.65;;;14.80;99.90;;;;;;5035701;28;20034;-88
2021/12/31 00:55:42;;;;;;;7.03;2.33;;;14.80;99.90;;;;;;5001690;28;20079;-87
2021/12/31 00:58:17;;;;;;;9.63;2.63;;;14.80;99.90;;;;;;5001182;28;20029;-87
2021/12/31 01:00:43;;;;;;;5.70;2.50;;;14.80;99.90;;;;;;5000933;28;20033;-87
2021/12/31 01:03:12;;;;;;;9.43;2.53;;;14.80;99.90;;;;;;4984951;28;20056;-87
2021/12/31 01:05:38;;;;;;;7.93;2.40;;;14.80;99.90;;;;;;5001448;28;20529;-87
2021/12/31 01:08:04;;;;;;;7.82;2.40;;;14.80;99.90;;;;;;5001127;28;20037;-87
2021/12/31 01:10:30;;;;;;;6.30;2.10;;;14.80;99.90;;;;;;4985434;28;20029;-87
2021/12/31 01:12:56;;;;;;;6.43;1.98;;;14.80;99.90;;;;;;5001080;28;20431;-87
2021/12/31 01:15:44;;;;;;;6.25;2.10;;;14.80;99.90;;;;;;4984699;28;20048;-87
2021/12/31 01:18:22;;;;;;;7.00;2.25;;;14.80;99.90;;;;;;4998971;28;20037;-87
2021/12/31 01:21:10;;;;;;;7.28;2.85;;;14.90;99.90;;;;;;4997080;28;20037;-87
2021/12/31 01:23:39;;;;;;;9.23;2.70;;;14.80;99.90;;;;;;5017233;28;20029;-87
2021/12/31 01:29:50;;;;;;;4.43;1.70;;;14.80;99.90;;;;;;5016328;28;20029;-87
2021/12/31 01:32:25;;;;;;;3.55;2.20;;;14.80;99.90;;;;;;5017137;28;20026;-87
2021/12/31 01:34:51;;;;;;;7.07;2.22;;;14.80;99.90;;;;;;5017173;28;20391;-86
2021/12/31 01:37:17;;;;;;;5.53;2.13;;;14.80;99.90;;;;;;5001256;28;20029;-87
2021/12/31 01:39:43;;;;;;;6.10;1.88;;;14.80;99.90;;;;;;5017206;28;20045;-87
2021/12/31 01:42:17;;;;;;;7.90;2.30;;;14.80;99.90;;;;;;5000872;28;20441;-87
2021/12/31 01:44:52;;;;;;;7.53;2.20;;;14.80;99.90;;;;;;4986709;28;20091;-84
2021/12/31 01:47:22;;;;;;;4.72;1.60;;;14.80;99.90;;;;;;5001539;28;20030;-84
2021/12/31 01:49:58;;;;;;;5.72;1.80;;;14.80;99.90;;;;;;5016215;28;20029;-85
2021/12/31 01:52:24;;;;;;;7.50;2.83;;;14.80;99.90;;;;;;5016942;28;20057;-85
2021/12/31 01:54:53;;;;;;;7.80;2.28;;;14.80;99.90;;;;;;5017000;28;20056;-85
2021/12/31 01:57:21;;;;;;;5.50;1.80;;;14.80;99.90;;;;;;5016814;28;20021;-85
2021/12/31 01:59:47;;;;;;;7.60;2.63;;;14.80;99.90;;;;;;5016616;28;20116;-85
2021/12/31 02:02:13;;;;;;;6.60;2.00;;;14.80;99.90;;;;;;5033125;28;20050;-86
2021/12/31 02:04:40;;;;;;;7.03;1.88;;;14.80;99.90;;;;;;5000344;28;20041;-85
2021/12/31 02:07:07;;;;;;;6.63;1.83;;;14.80;99.90;;;;;;5016221;28;20028;-85
2021/12/31 02:09:47;;;;;;;6.60;1.80;;;14.80;99.90;;;;;;5000413;28;20578;-85
2021/12/31 02:12:12;;;;;;;6.18;1.83;;;14.90;99.90;;;;;;5017055;28;20352;-85
2021/12/31 02:14:38;;;;;;;10.30;2.10;;;14.80;99.90;;;;;;4984286;28;20017;-85
2021/12/31 02:17:08;;;;;;;7.22;2.03;;;14.80;99.90;;;;;;5000599;28;20053;-86
2021/12/31 02:19:34;;;;;;;5.03;1.80;;;14.80;99.90;;;;;;5016949;28;20037;-86
2021/12/31 02:22:02;;;;;;;5.43;1.77;;;14.90;99.90;;;;;;5016839;28;20029;-86
2021/12/31 02:24:28;;;;;;;5.93;2.08;;;14.90;99.90;;;;;;5000643;28;20026;-86
2021/12/31 02:26:54;;;;;;;5.30;1.67;;;14.90;99.90;;;;;;5012827;28;20092;-86
2021/12/31 02:29:23;;;;;;;5.50;1.98;;;14.90;99.90;;;;;;5030770;28;20537;-86
2021/12/31 02:31:49;;;;;;;5.78;1.85;;;14.90;99.90;;;;;;5016764;28;20053;-86
2021/12/31 02:34:15;;;;;;;5.57;1.90;;;14.90;99.90;;;;;;5016781;28;20026;-86
2021/12/31 02:36:41;;;;;;;4.75;1.88;;;14.90;99.90;;;;;;5016707;28;20034;-86
2021/12/31 02:39:07;;;;;;;8.20;2.20;;;14.90;99.90;;;;;;4984252;28;20057;-87
2021/12/31 02:41:33;;;;;;;3.90;1.50;;;15.00;99.90;;;;;;5017316;28;20381;-86
2021/12/31 02:43:59;;;;;;;5.10;1.80;;;15.00;99.90;;;;;;5018511;28;20022;-85
2021/12/31 02:46:25;;;;;;;6.55;1.67;;;15.00;99.90;;;;;;5017265;28;20030;-85
2021/12/31 02:48:56;;;;;;;5.45;1.90;;;15.00;99.90;;;;;;5000461;28;20026;-86
2021/12/31 02:51:23;;;;;;;5.28;1.95;;;15.00;99.90;;;;;;5001214;28;20165;-85
2021/12/31 02:53:53;;;;;;;4.95;2.45;;;15.00;99.90;;;;;;5000699;28;20041;-86
2021/12/31 02:56:20;;;;;;;5.85;1.92;;;15.00;99.90;;;;;;5016506;28;20037;-85
2021/12/31 02:58:45;;;;;;;7.88;1.90;;;15.00;99.90;;;;;;5016093;28;20053;-85
2021/12/31 03:01:15;;;;;;;5.93;2.22;;;15.10;99.90;;;;;;5017162;28;20080;-87
2021/12/31 03:03:42;;;;;;;6.90;2.10;;;15.00;99.90;;;;;;5000461;28;20030;-87
2021/12/31 03:06:12;;;;;;;4.13;1.77;;;15.10;99.90;;;;;;5012436;28;20036;-86
2021/12/31 03:08:51;;;;;;;5.95;1.63;;;15.10;99.90;;;;;;5016300;28;20155;-86
2021/12/31 03:11:31;;;;;;;5.07;1.70;;;15.10;99.90;;;;;;5017811;28;20029;-86
2021/12/31 03:14:00;;;;;;;3.80;1.55;;;15.00;99.90;;;;;;5012380;28;20036;-86
2021/12/31 03:16:35;;;;;;;8.10;1.95;;;15.00;99.90;;;;;;5015963;28;20517;-87
2021/12/31 03:19:02;;;;;;;5.68;1.80;;;15.10;99.90;;;;;;5015905;28;20042;-86
2021/12/31 03:21:30;;;;;;;10.40;1.77;;;15.10;99.90;;;;;;4983900;28;20037;-86
2021/12/31 03:24:06;;;;;;;3.53;1.58;;;15.10;99.90;;;;;;5016092;28;20547;-86
2021/12/31 03:26:42;;;;;;;7.22;1.70;;;15.10;99.90;;;;;;5017368;28;20036;-86
2021/12/31 03:29:09;;;;;;;8.40;1.85;;;15.10;99.90;;;;;;4987237;28;20049;-87
2021/12/31 03:31:43;;;;;;;5.03;1.90;;;15.10;99.90;;;;;;4979956;28;20027;-85
2021/12/31 03:34:59;;;;;;;6.78;2.03;;;15.10;99.90;;;;;;4996528;28;20423;-86
2021/12/31 03:37:26;;;;;;;4.90;1.65;;;15.10;99.90;;;;;;4995958;28;20034;-86
2021/12/31 03:39:56;;;;;;;4.80;1.50;;;15.00;99.90;;;;;;4979815;28;20030;-86
2021/12/31 03:42:28;;;;;;;6.80;1.60;;;15.00;99.90;;;;;;4994734;28;20038;-86
2021/12/31 03:45:02;;;;;;;5.70;1.77;;;15.00;99.90;;;;;;4995860;28;20037;-87
2021/12/31 03:47:28;;;;;;;6.88;1.85;;;15.00;99.90;;;;;;4995907;28;20045;-86
2021/12/31 03:49:54;;;;;;;8.18;1.92;;;15.00;99.90;;;;;;4963771;28;20038;-86
2021/12/31 03:52:29;;;;;;;6.25;1.88;;;15.00;99.90;;;;;;4979515;28;20369;-86
2021/12/31 03:54:54;;;;;;;6.50;1.70;;;15.00;99.90;;;;;;4995185;28;20125;-85
2021/12/31 03:57:20;;;;;;;6.82;1.80;;;14.90;99.90;;;;;;4979285;28;20136;-86
2021/12/31 03:59:46;;;;;;;6.10;2.00;;;14.90;99.90;;;;;;4995449;28;20034;-86
2021/12/31 04:02:11;;;;;;;5.40;1.67;;;15.00;99.90;;;;;;4979647;28;20546;-84
2021/12/31 04:04:38;;;;;;;7.32;1.85;;;15.00;99.90;;;;;;4995341;28;20380;-85
2021/12/31 04:07:04;;;;;;;7.47;1.98;;;15.00;99.90;;;;;;4978888;28;20038;-85
2021/12/31 04:09:29;;;;;;;7.07;1.63;;;15.00;99.90;;;;;;4979098;28;20042;-85
2021/12/31 04:11:55;;;;;;;4.13;1.65;;;14.90;99.90;;;;;;4978765;28;20034;-85
2021/12/31 04:14:20;;;;;;;7.53;2.05;;;14.90;99.90;;;;;;4995239;28;20026;-85
2021/12/31 04:16:46;;;;;;;7.40;1.83;;;14.90;99.90;;;;;;4977401;28;20031;-85
2021/12/31 04:19:12;;;;;;;8.40;2.25;;;14.90;99.90;;;;;;4943579;28;20114;-85
2021/12/31 04:21:37;;;;;;;5.75;2.20;;;14.90;99.90;;;;;;4975295;28;20049;-84
2021/12/31 04:24:13;;;;;;;6.55;2.40;;;14.90;99.90;;;;;;4971046;28;20030;-85
2021/12/31 04:26:39;;;;;;;5.30;1.70;;;14.90;99.90;;;;;;4965243;28;20547;-85
2021/12/31 04:29:05;;;;;;;8.30;2.47;;;14.90;99.90;;;;;;4985227;28;20125;-85
2021/12/31 04:31:30;;;;;;;5.22;2.00;;;14.90;99.90;;;;;;4994800;28;20127;-85
2021/12/31 04:33:58;;;;;;;9.25;1.90;;;14.90;99.90;;;;;;4994543;28;20395;-85
2021/12/31 04:36:24;;;;;;;7.03;2.20;;;14.90;99.90;;;;;;4994581;28;20028;-85
2021/12/31 04:38:49;;;;;;;7.47;1.80;;;14.90;99.90;;;;;;4978553;28;20018;-85
2021/12/31 04:41:15;;;;;;;5.28;1.90;;;14.90;99.90;;;;;;5010922;28;20058;-85
2021/12/31 04:43:41;;;;;;;8.65;2.10;;;14.90;99.90;;;;;;4978310;28;20038;-85
2021/12/31 04:46:06;;;;;;;4.97;1.98;;;14.90;99.90;;;;;;4978854;28;20037;-86
2021/12/31 04:48:32;;;;;;;5.70;1.88;;;14.90;99.90;;;;;;4994892;28;20041;-86
2021/12/31 04:50:58;;;;;;;4.15;1.70;;;14.90;99.90;;;;;;4977800;28;20534;-86
2021/12/31 04:53:25;;;;;;;4.50;1.80;;;14.80;99.90;;;;;;4994793;28;20038;-85
2021/12/31 04:55:51;;;;;;;6.72;2.22;;;14.90;99.90;;;;;;4978693;28;20023;-86
2021/12/31 04:58:22;;;;;;;6.93;1.92;;;14.80;99.90;;;;;;4994802;28;20092;-86
2021/12/31 05:00:50;;;;;;;5.95;1.85;;;14.80;99.90;;;;;;4978021;28;20046;-87
2021/12/31 05:03:17;;;;;;;5.82;1.90;;;14.80;99.90;;;;;;4978713;28;20506;-87
2021/12/31 05:05:50;;;;;;;5.57;2.30;;;14.80;99.90;;;;;;4978754;28;20026;-86
2021/12/31 05:08:16;;;;;;;8.75;2.50;;;14.80;99.90;;;;;;4993603;28;20557;-87
2021/12/31 05:10:44;;;;;;;3.80;1.90;;;14.70;99.90;;;;;;4993690;28;20043;-86
2021/12/31 05:13:19;;;;;;;6.35;2.55;;;14.70;99.90;;;;;;4994303;28;20050;-87
2021/12/31 05:15:56;;;;;;;5.95;2.33;;;14.70;99.90;;;;;;5010424;28;20437;-86
2021/12/31 05:21:20;;;;;;;6.28;1.92;;;14.70;99.90;;;;;;4996002;28;20093;-87
2021/12/31 05:23:46;;;;;;;8.55;2.00;;;14.70;99.90;;;;;;4994242;28;20499;-87
2021/12/31 05:26:13;;;;;;;7.57;2.38;;;14.70;99.90;;;;;;4994789;28;20117;-87
2021/12/31 05:28:46;;;;;;;4.88;2.20;;;14.70;99.90;;;;;;5000758;28;20041;-86
2021/12/31 05:31:19;;;;;;;6.70;2.25;;;14.70;99.90;;;;;;5015881;28;20129;-87
2021/12/31 05:33:46;;;;;;;7.57;2.50;;;14.60;99.90;;;;;;5015997;28;20486;-87
2021/12/31 05:36:14;;;;;;;4.97;2.08;;;14.60;99.90;;;;;;5000645;28;20041;-87
2021/12/31 05:38:40;;;;;;;6.38;2.47;;;14.60;99.90;;;;;;5001057;28;20032;-86
2021/12/31 05:41:11;;;;;;;5.63;2.20;;;14.60;99.90;;;;;;5017250;28;20485;-85
2021/12/31 05:43:39;;;;;;;6.72;2.30;;;14.60;99.90;;;;;;5001531;28;20065;-86
2021/12/31 05:46:09;;;;;;;7.10;2.50;;;14.60;99.90;;;;;;5016485;28;20608;-86
2021/12/31 05:48:38;;;;;;;7.30;2.33;;;14.60;99.90;;;;;;4985115;28;20029;-87
2021/12/31 05:51:11;;;;;;;5.93;2.00;;;14.60;99.90;;;;;;4984494;28;20128;-86
2021/12/31 05:53:42;;;;;;;5.57;1.85;;;14.60;99.90;;;;;;5016271;28;20494;-85
2021/12/31 05:56:08;;;;;;;6.13;2.20;;;14.60;99.90;;;;;;4997870;28;20041;-86
2021/12/31 05:58:43;;;;;;;5.45;2.50;;;14.50;99.90;;;;;;4984195;28;20501;-87
2021/12/31 06:01:47;;;;;;;5.90;2.25;;;14.50;99.90;;;;;;5003708;28;20541;-86
2021/12/31 06:04:16;;;;;;;6.53;2.67;;;14.50;99.90;;;;;;5017299;28;20370;-87
2021/12/31 06:06:42;;;;;;;11.57;3.25;;;14.50;99.90;;;;;;5020502;28;20115;-86
2021/12/31 06:09:16;;;;;;;8.07;2.47;;;14.50;99.90;;;;;;5021115;28;20021;-87
2021/12/31 06:11:43;;;;;;;8.30;2.58;;;14.50;99.90;;;;;;5021024;28;20037;-86
2021/12/31 06:14:27;;;;;;;8.70;2.63;;;14.50;99.90;;;;;;5020822;28;20064;-87
2021/12/31 06:16:53;;;;;;;8.57;2.67;;;14.50;99.90;;;;;;5020666;28;20368;-86
2021/12/31 06:19:18;;;;;;;9.00;2.38;;;14.50;99.90;;;;;;4987972;28;20083;-87
2021/12/31 06:21:46;;;;;;;5.13;2.20;;;14.50;99.90;;;;;;5003508;28;20081;-87
2021/12/31 06:24:12;;;;;;;5.07;2.30;;;14.50;99.90;;;;;;4993522;28;20038;-86
2021/12/31 06:26:38;;;;;;;6.45;2.65;;;14.50;99.90;;;;;;4983358;28;20040;-86
2021/12/31 06:29:07;;;;;;;6.90;2.20;;;14.50;99.90;;;;;;4984025;28;20076;-86
2021/12/31 06:31:59;;;;;;;5.82;2.15;;;14.50;99.90;;;;;;4978694;28;20042;-86
2021/12/31 06:34:28;;;;;;;5.50;2.55;;;14.50;99.90;;;;;;5013733;28;20058;-86
2021/12/31 06:37:16;;;;;;;9.05;2.78;;;14.40;99.90;;;;;;4991613;28;20042;-86
2021/12/31 06:39:48;;;;;;;6.65;2.70;;;14.40;99.90;;;;;;4995770;28;20475;-86
2021/12/31 06:42:21;;;;;;;6.97;2.53;;;14.40;99.90;;;;;;4981894;28;20038;-86
2021/12/31 06:44:54;;;;;;;5.25;2.17;;;14.50;99.90;;;;;;4996611;28;20026;-86
2021/12/31 06:47:20;;;;;;;6.63;2.40;;;14.40;99.90;;;;;;4997114;28;20117;-86
2021/12/31 06:49:50;;;;;;;6.35;2.42;;;14.50;99.90;;;;;;4965017;28;20137;-86
2021/12/31 06:52:20;;;;;;;6.75;2.20;;;14.40;99.90;;;;;;4997145;28;20046;-86
2021/12/31 06:54:47;;;;;;;6.60;3.13;;;14.40;99.90;;;;;;4980777;28;20034;-86
2021/12/31 06:57:14;;;;;;;6.88;2.58;;;14.40;99.90;;;;;;4964775;28;20030;-86
2021/12/31 07:00:05;;;;;;;6.45;2.15;;;14.40;99.90;;;;;;4964033;28;20031;-86
2021/12/31 07:02:31;;;;;;;6.60;2.20;;;14.30;99.90;;;;;;5015061;28;20368;-85
2021/12/31 07:05:00;;;;;;;7.28;2.90;;;14.30;99.90;;;;;;4998444;28;20032;-85
2021/12/31 07:07:33;;;;;;;8.90;2.50;;;14.30;99.90;;;;;;4999611;28;20443;-85
2021/12/31 07:10:00;;;;;;;7.03;2.20;;;14.30;99.90;;;;;;5015197;28;20014;-86
2021/12/31 07:12:27;;;;;;;4.80;2.13;;;14.20;99.90;;;;;;5012446;28;20056;-85
2021/12/31 07:14:56;;;;;;;5.63;2.00;;;14.20;99.90;;;;;;4982411;28;20105;-85
2021/12/31 07:17:29;;;;;;;5.80;2.30;;;14.10;99.90;;;;;;5012257;28;20512;-86
2021/12/31 07:19:57;;;;;;;4.53;2.00;;;14.10;99.90;;;;;;4979998;28;20084;-87
2021/12/31 07:22:26;;;;;;;3.85;1.98;;;14.10;99.90;;;;;;4999254;28;20058;-86
2021/12/31 07:24:54;;;;;;;5.75;2.10;;;14.00;99.90;;;;;;5011665;28;20018;-85
2021/12/31 07:27:31;;;;;;;7.65;2.38;;;14.00;99.90;;;;;;4993290;28;20057;-86
2021/12/31 07:30:00;;;;;;;5.25;2.42;;;14.00;99.90;;;;;;5000474;28;20569;-86
2021/12/31 07:32:27;;;;;;;6.57;2.53;;;14.00;99.90;;;;;;4985149;28;20056;-85
2021/12/31 07:34:53;;;;;;;6.68;2.30;;;13.90;99.90;;;;;;5001355;28;20394;-86
2021/12/31 07:37:31;;;;;;;5.35;2.42;;;13.90;99.90;;;;;;5001359;28;20033;-87
2021/12/31 07:40:10;;;;;;;8.27;2.47;;;13.90;99.90;;;;;;5018681;28;20024;-87
2021/12/31 07:42:45;;;;;;;6.75;2.67;;;13.80;99.90;;;;;;5018686;28;20025;-87
2021/12/31 07:45:20;;;;;;;5.80;2.50;;;13.80;99.90;;;;;;5000200;28;20037;-87
2021/12/31 07:47:53;;;;;;;4.90;2.38;;;13.80;99.90;;;;;;5035917;28;20017;-86
2021/12/31 07:50:36;;;;;;;7.30;2.20;;;13.80;99.90;;;;;;5018567;28;20029;-86
2021/12/31 07:53:07;;;;;;;6.22;2.22;;;13.80;99.90;;;;;;5011679;28;20050;-86
2021/12/31 07:55:39;;;;;;;7.05;2.35;;;13.80;99.90;;;;;;4999813;28;20036;-86
2021/12/31 07:58:05;;;;;;;5.38;2.30;;;13.70;99.90;;;;;;5018114;28;20037;-87
2021/12/31 08:00:39;;;;;;;6.85;2.30;;;13.70;99.90;;;;;;5018569;28;20046;-87
2021/12/31 08:03:06;;;;;;;7.85;2.60;;;13.70;99.90;;;;;;5018596;28;20031;-86
2021/12/31 08:05:35;;;;;;;6.80;2.30;;;13.70;99.90;;;;;;5002446;28;20033;-86
2021/12/31 08:08:04;;;;;;;6.72;2.10;;;13.70;99.90;;;;;;4986870;28;20040;-87
2021/12/31 08:10:34;;;;;;;5.00;2.00;;;13.70;99.90;;;;;;5015994;28;20041;-85
2021/12/31 08:13:02;;;;;;;5.20;2.10;;;13.70;99.90;;;;;;5015772;28;20025;-86
2021/12/31 08:15:28;;;;;;;7.07;2.38;;;13.70;99.90;;;;;;5017431;28;20133;-86
2021/12/31 08:17:54;;;;;;;5.05;1.85;;;13.70;99.90;;;;;;5014818;28;20029;-86
2021/12/31 08:20:21;;;;;;;5.10;2.20;;;13.70;99.90;;;;;;5001668;28;20025;-85
2021/12/31 08:22:46;;;;;;;7.18;1.98;;;13.70;99.90;;;;;;5035657;28;20026;-86
2021/12/31 08:25:12;;;;;;;6.65;2.28;;;13.70;99.90;;;;;;5002192;28;20120;-86
2021/12/31 08:27:38;;;;;;;3.90;2.30;;;13.60;99.90;;;;;;5032117;28;20493;-86
2021/12/31 08:30:07;;;;;;;5.88;2.33;;;13.60;99.90;;;;;;4999222;28;20435;-86
2021/12/31 08:32:39;;;;;;;7.53;2.67;;;13.60;99.90;;;;;;4996058;28;20046;-86
2021/12/31 08:35:08;;;;;;;5.00;2.13;;;13.60;99.90;;;;;;4990478;28;20531;-86
2021/12/31 08:37:35;;;;;;;6.75;2.00;;;13.60;99.90;;;;;;5031231;28;20412;-86
2021/12/31 08:40:01;;;;;;;4.38;2.25;;;13.60;99.90;;;;;;4979907;28;20088;-86
2021/12/31 08:42:31;;;;;;;6.45;2.70;;;13.60;99.90;;;;;;4992948;28;20038;-86
2021/12/31 08:45:02;;;;;;;7.25;2.40;;;13.60;99.90;;;;;;5006757;28;20034;-86
2021/12/31 08:47:58;;;;;;;3.83;1.90;;;13.60;99.90;;;;;;5012349;28;20021;-85
2021/12/31 08:50:46;;;;;;;4.00;2.10;;;13.60;99.90;;;;;;5011869;28;20120;-86
2021/12/31 08:53:13;;;;;;;7.32;2.40;;;13.60;99.90;;;;;;4997796;28;20650;-86
2021/12/31 08:55:39;;;;;;;7.50;2.15;;;13.60;99.90;;;;;;4997539;28;20040;-86
2021/12/31 08:58:06;;;;;;;8.73;2.42;;;13.60;99.90;;;;;;4989699;28;20026;-85
2021/12/31 09:00:45;;;;;;;4.32;2.20;;;13.60;99.90;;;;;;5011762;28;20036;-86
2021/12/31 09:03:13;;;;;;;5.53;2.03;;;13.60;99.90;;;;;;5013960;28;20480;-87
2021/12/31 09:05:41;;;;;;;6.13;2.45;;;13.60;99.90;;;;;;4981571;28;20018;-86
2021/12/31 09:08:12;;;;;;;6.40;2.83;;;13.60;99.90;;;;;;4981822;28;20487;-87
2021/12/31 09:10:50;;;;;;;8.23;2.40;;;13.60;99.90;;;;;;5014388;28;20022;-86
2021/12/31 09:13:16;;;;;;;5.97;2.10;;;13.60;99.90;;;;;;4997568;28;20021;-87
2021/12/31 09:15:43;;;;;;;4.88;2.13;;;13.60;99.90;;;;;;5017455;28;20022;-88
2021/12/31 09:18:09;;;;;;;4.28;1.95;;;13.60;99.90;;;;;;4987335;28;20554;-88
2021/12/31 09:20:57;;;;;;;5.85;2.50;;;13.60;99.90;;;;;;5003223;28;20060;-87
2021/12/31 09:23:50;;;;;;;4.55;2.00;;;13.70;99.90;;;;;;5002782;28;20497;-86
2021/12/31 09:26:18;;;;;;;6.45;2.47;;;13.70;99.90;;;;;;5015285;28;20022;-87
2021/12/31 09:28:49;;;;;;;3.85;1.90;;;13.70;99.90;;;;;;5015581;28;20018;-86
2021/12/31 09:31:24;;;;;;;4.78;2.00;;;13.70;99.90;;;;;;4984776;28;20057;-88
2021/12/31 09:34:18;;;;;;;4.20;2.03;;;13.70;99.90;;;;;;5035918;28;20038;-88
2021/12/31 09:37:13;;;;;;;3.45;1.95;;;13.70;99.90;;;;;;5019053;28;20435;-87
2021/12/31 09:39:39;;;;;;;6.15;1.85;;;13.60;99.90;;;;;;5013166;23;20069;-88
2021/12/31 09:42:05;;;;;;;3.22;1.90;;;13.60;99.90;;;;;;5025738;28;20382;-88
2021/12/31 09:44:33;;;;;;;6.68;2.00;;;13.70;99.90;;;;;;5020420;28;20108;-88
2021/12/31 09:46:59;;;;;;;4.78;1.80;;;13.70;99.90;;;;;;5040956;28;20032;-87
2021/12/31 09:49:24;;;;;;;3.97;2.10;;;13.70;99.90;;;;;;5048564;28;20040;-88
2021/12/31 09:51:51;;;;;;;5.53;2.00;;;13.70;99.90;;;;;;5049511;28;20017;-87
2021/12/31 09:54:22;;;;;;;6.75;2.33;;;13.80;99.90;;;;;;5050659;28;20036;-87
2021/12/31 09:56:52;;;;;;;5.33;1.70;;;13.70;99.90;;;;;;5057818;28;20025;-85
2021/12/31 09:59:28;;;;;;;;;;;;;;;;;;;;;
2021/12/31 10:01:56;;;;;;;3.92;1.95;;;13.80;99.90;;;;;;5059461;28;20492;-88
2021/12/31 10:04:22;;;;;;;2.45;1.50;;;13.80;99.90;;;;;;5005748;28;20418;-87
2021/12/31 10:07:07;;;;;;;4.03;1.90;;;13.80;99.90;;;;;;5015046;28;20022;-88
2021/12/31 10:09:38;;;;;;;5.22;2.30;;;13.80;99.90;;;;;;5027424;28;20021;-89
2021/12/31 10:12:05;;;;;;;3.67;2.13;;;13.90;99.90;;;;;;5049021;28;20466;-88
2021/12/31 10:14:39;;;;;;;5.93;2.08;;;13.90;99.90;;;;;;5038207;28;20025;-88
2021/12/31 10:17:06;;;;;;;8.73;3.05;;;13.90;99.90;;;;;;5056768;28;20428;-86
2021/12/31 10:19:32;;;;;;;5.15;2.10;;;13.90;99.90;;;;;;5019334;28;20113;-88
2021/12/31 10:21:59;;;;;;;6.60;2.03;;;13.90;99.90;;;;;;5002979;28;20120;-87
2021/12/31 10:24:33;;;;;;;4.70;2.13;;;13.90;99.90;;;;;;5019693;28;20021;-87
2021/12/31 10:27:14;;;;;;;6.57;2.28;;;13.90;99.90;;;;;;5019487;28;20026;-86
2021/12/31 10:29:54;;;;;;;3.75;2.05;;;13.90;99.90;;;;;;5037047;28;20474;-86
2021/12/31 10:32:21;;;;;;;4.13;1.88;;;13.90;99.90;;;;;;5018940;28;20029;-86
2021/12/31 10:34:46;;;;;;;3.28;1.92;;;13.90;99.90;;;;;;5003426;28;20033;-87
2021/12/31 10:37:20;;;;;;;7.10;2.00;;;13.90;99.90;;;;;;5019269;28;20025;-87
2021/12/31 10:39:59;;;;;;;4.10;1.92;;;13.90;99.90;;;;;;5019191;28;20072;-87
2021/12/31 10:42:30;;;;;;;3.95;2.03;;;13.90;99.90;;;;;;5027488;28;20039;-88
2021/12/31 10:44:57;;;;;;;5.40;2.33;;;13.90;99.90;;;;;;5047931;28;20111;-88
2021/12/31 10:47:42;;;;;;;6.03;2.00;;;13.90;99.90;;;;;;5051468;28;20013;-89
2021/12/31 10:50:10;;;;;;;5.72;2.20;;;13.90;99.90;;;;;;5079026;28;20034;-88
2021/12/31 10:52:43;;;;;;;5.57;2.15;;;13.90;99.90;;;;;;5049420;28;20017;-88
2021/12/31 10:55:24;;;;;;;4.35;2.00;;;13.90;99.90;;;;;;5051091;28;20025;-87
2021/12/31 10:57:54;;;;;;;5.83;2.13;;;13.90;99.90;;;;;;5054600;28;20021;-89
2021/12/31 11:00:21;;;;;;;5.07;1.88;;;14.00;99.90;;;;;;5053153;28;20107;-87
2021/12/31 11:02:48;;;;;;;6.15;2.30;;;14.00;99.90;;;;;;5038210;28;20454;-87
2021/12/31 11:05:17;;;;;;;6.53;2.53;;;14.10;99.90;;;;;;5078216;28;20072;-87
2021/12/31 11:07:43;;;;;;;4.85;2.17;;;14.10;99.90;;;;;;5060175;28;20040;-88
2021/12/31 11:10:10;;;;;;;8.30;2.63;;;14.10;99.90;;;;;;5061910;28;20108;-87
2021/12/31 11:12:36;;;;;;;4.55;2.28;;;14.10;99.90;;;;;;5045542;28;20032;-86
2021/12/31 11:15:04;;;;;;;5.75;2.45;;;14.10;99.90;;;;;;5054535;28;20022;-88
2021/12/31 11:17:31;;;;;;;3.88;1.90;;;14.10;99.90;;;;;;5055958;28;20028;-87
2021/12/31 11:19:58;;;;;;;5.22;2.30;;;14.10;99.90;;;;;;5058078;28;20020;-87
2021/12/31 11:22:29;;;;;;;5.13;2.30;;;14.10;99.90;;;;;;5040939;28;20029;-88
2021/12/31 11:25:17;;;;;;;7.00;2.28;;;14.10;99.90;;;;;;5056516;28;20026;-87
2021/12/31 11:27:47;;;;;;;6.25;2.22;;;14.10;99.90;;;;;;5069345;28;20103;-86
2021/12/31 11:30:33;;;;;;;5.68;2.25;;;14.10;99.90;;;;;;5050463;28;20025;-87
2021/12/31 11:33:08;;;;;;;6.93;2.40;;;14.10;99.90;;;;;;5047559;28;20031;-87
2021/12/31 11:35:36;;;;;;;5.07;2.10;;;14.10;99.90;;;;;;5043779;28;20036;-88
2021/12/31 11:38:07;;;;;;;7.55;2.58;;;14.10;99.90;;;;;;5042456;28;20032;-87
2021/12/31 11:40:50;;;;;;;5.30;2.75;;;14.10;99.90;;;;;;5058985;28;20106;-86
2021/12/31 11:43:25;;;;;;;5.47;2.60;;;14.10;99.90;;;;;;5047248;28;20080;-86
2021/12/31 11:46:19;;;;;;;7.13;2.88;;;14.20;99.90;;;;;;5065381;28;20059;-87
2021/12/31 11:48:46;;;;;;;5.53;2.80;;;14.20;99.90;;;;;;5068597;28;20024;-87
2021/12/31 11:51:18;;;;;;;5.63;2.58;;;14.20;99.90;;;;;;5065766;28;20047;-86
2021/12/31 11:53:55;;;;;;;3.72;2.40;;;14.30;99.90;;;;;;5069605;28;20025;-87
2021/12/31 11:59:24;;;;;;;4.53;2.25;;;14.20;99.90;;;;;;5055978;28;20029;-87
2021/12/31 12:01:52;;;;;;;4.97;2.33;;;14.30;99.90;;;;;;5037259;28;20025;-86
2021/12/31 12:04:38;;;;;;;5.07;2.65;;;14.30;99.90;;;;;;5035011;28;20036;-87
2021/12/31 12:07:15;;;;;;;5.75;2.38;;;14.40;99.90;;;;;;5038740;28;20028;-87
2021/12/31 12:09:44;;;;;;;5.20;2.40;;;14.40;99.90;;;;;;5041098;28;20021;-88
2021/12/31 12:12:13;;;;;;;7.50;3.05;;;14.50;99.90;;;;;;5033885;28;20025;-88
2021/12/31 12:14:47;;;;;;;5.53;2.80;;;14.50;99.90;;;;;;5051334;28;20009;-87
2021/12/31 12:17:15;;;;;;;7.55;3.13;;;14.40;99.90;;;;;;5044287;28;20111;-87
2021/12/31 12:19:47;;;;;;;6.63;2.55;;;14.50;99.90;;;;;;5041932;28;20101;-87
2021/12/31 12:22:26;;;;;;;7.95;3.00;;;14.50;99.90;;;;;;5030623;28;20040;-87
2021/12/31 12:24:53;;;;;;;8.15;2.55;;;14.50;99.90;;;;;;5036289;28;20017;-88
2021/12/31 12:27:23;;;;;;;9.15;3.13;;;14.50;99.90;;;;;;5027003;28;20505;-87
2021/12/31 12:29:50;;;;;;;4.50;2.58;;;14.50;99.90;;;;;;5033347;28;20040;-88
2021/12/31 12:32:18;;;;;;;6.78;2.60;;;14.40;99.90;;;;;;5031547;28;20049;-88
2021/12/31 12:34:44;;;;;;;6.00;2.58;;;14.50;99.90;;;;;;5034240;28;20021;-88
2021/12/31 12:37:10;;;;;;;6.60;3.00;;;14.40;99.90;;;;;;5017849;28;20116;-88
2021/12/31 12:39:37;;;;;;;6.93;2.65;;;14.40;99.90;;;;;;5025381;28;20053;-87
2021/12/31 12:42:06;;;;;;;5.30;2.75;;;14.50;99.90;;;;;;5036227;28;20021;-88
2021/12/31 12:44:33;;;;;;;5.65;2.70;;;14.50;99.90;;;;;;5030325;28;20348;-88
2021/12/31 12:46:59;;;;;;;6.22;2.75;;;14.60;99.90;;;;;;5024207;28;20021;-88
2021/12/31 12:49:27;;;;;;;8.43;3.40;;;14.60;99.90;;;;;;5029714;28;20112;-87
2021/12/31 12:52:10;;;;;;;7.65;2.75;;;14.70;99.90;;;;;;5025321;28;20014;-88
2021/12/31 12:54:36;;;;;;;8.15;3.30;;;14.70;99.90;;;;;;5027655;28;20112;-88
2021/12/31 12:57:03;;;;;;;7.15;2.70;;;14.80;99.90;;;;;;4988987;28;20052;-86
2021/12/31 12:59:28;;;;;;;7.00;2.75;;;14.80;99.90;;;;;;5020367;28;20114;-88
2021/12/31 13:01:54;;;;;;;8.90;3.65;;;14.90;99.90;;;;;;5016720;28;20471;-88
2021/12/31 13:04:25;;;;;;;7.65;3.33;;;14.80;99.90;;;;;;5024913;28;20359;-87
2021/12/31 13:06:57;;;;;;;6.57;2.80;;;14.90;99.90;;;;;;5017223;28;20047;-88
2021/12/31 13:09:23;;;;;;;7.97;3.10;;;14.90;99.90;;;;;;5020426;28;20021;-87
2021/12/31 13:11:53;;;;;;;10.25;3.10;;;14.90;99.90;;;;;;5020987;28;20037;-87
2021/12/31 13:14:24;;;;;;;8.32;4.00;;;14.90;99.90;;;;;;5054823;28;20028;-86
2021/12/31 13:16:52;;;;;;;6.53;2.85;;;14.80;99.90;;;;;;5039968;28;20047;-87
2021/12/31 13:19:30;;;;;;;7.63;3.22;;;14.80;99.90;;;;;;5047981;28;20082;-88
2021/12/31 13:21:59;;;;;;;7.30;3.53;;;14.80;99.90;;;;;;5056016;28;20109;-88
2021/12/31 13:24:26;;;;;;;5.70;2.92;;;14.80;99.90;;;;;;5057881;28;20115;-88
2021/12/31 13:26:53;;;;;;;6.22;3.00;;;14.80;99.90;;;;;;5007623;28;20108;-88
2021/12/31 13:29:36;;;;;;;10.65;3.47;;;14.80;99.90;;;;;;5035947;28;20025;-89
2021/12/31 13:32:10;;;;;;;8.77;3.45;;;14.70;99.90;;;;;;5054170;28;20023;-88
2021/12/31 13:34:52;;;;;;;7.68;3.45;;;14.70;99.90;;;;;;5043160;28;20082;-86
2021/12/31 13:37:27;;;;;;;8.00;4.18;;;14.70;99.90;;;;;;5033849;28;20103;-86
2021/12/31 13:40:14;;;;;;;12.98;5.78;;;14.70;99.90;;;;;;5030396;28;20052;-87
2021/12/31 13:42:45;;;;;;;11.45;5.90;;;14.70;99.90;;;;;;5027601;28;20034;-86